sensor_id;sensor_type;location;lat;lon;timestamp;pressure;altitude;pressure_sealevel;temperature;humidity
7888;BME280;3989;48.810;9.208;2022-07-29T00:00:37;98573.13;;;19.93;100.00
7888;BME280;3989;48.810;9.208;2022-07-29T00:03:04;98572.53;;;19.91;100.00
7888;BME280;3989;48.810;9.208;2022-07-29T00:05:31;98584.31;;;19.97;100.00
7888;BME280;3989;48.810;9.208;2022-07-29T00:07:59;98570.47;;;19.81;100.00
7888;BME280;3989;48.810;9.208;2022-07-29T00:10:25;98583.72;;;19.95;100.00
7888;BME280;3989;48.810;9.208;2022-07-29T00:12:52;98581.00;;;19.95;100.00
7888;BME280;3989;48.810;9.208;2022-07-29T00:15:19;98571.72;;;19.90;100.00
7888;BME280;3989;48.810;9.208;2022-07-29T00:17:45;98570.59;;;19.86;100.00
7888;BME280;3989;48.810;9.208;2022-07-29T00:20:12;98568.69;;;19.87;100.00
7888;BME280;3989;48.810;9.208;2022-07-29T00:22:39;98564.34;;;19.86;100.00
7888;BME280;3989;48.810;9.208;2022-07-29T00:25:08;98566.44;;;19.84;100.00
7888;BME280;3989;48.810;9.208;2022-07-29T00:27:35;98563.66;;;19.79;100.00
7888;BME280;3989;48.810;9.208;2022-07-29T00:30:02;98557.09;;;19.75;100.00
7888;BME280;3989;48.810;9.208;2022-07-29T00:32:29;98559.22;;;19.73;100.00
7888;BME280;3989;48.810;9.208;2022-07-29T00:34:55;98562.75;;;19.73;100.00
7888;BME280;3989;48.810;9.208;2022-07-29T00:37:45;98559.78;;;19.75;100.00
7888;BME280;3989;48.810;9.208;2022-07-29T00:40:13;98557.91;;;19.75;100.00
7888;BME280;3989;48.810;9.208;2022-07-29T00:42:44;98559.78;;;19.75;100.00
7888;BME280;3989;48.810;9.208;2022-07-29T00:45:11;98559.56;;;19.76;100.00
7888;BME280;3989;48.810;9.208;2022-07-29T00:47:38;98519.88;;;19.54;100.00
7888;BME280;3989;48.810;9.208;2022-07-29T00:50:07;98551.09;;;19.73;100.00
7888;BME280;3989;48.810;9.208;2022-07-29T00:52:37;98551.09;;;19.73;100.00
7888;BME280;3989;48.810;9.208;2022-07-29T00:55:06;98550.34;;;19.77;100.00
7888;BME280;3989;48.810;9.208;2022-07-29T00:57:35;98536.41;;;19.69;100.00
7888;BME280;3989;48.810;9.208;2022-07-29T01:00:03;98552.13;;;19.83;100.00
7888;BME280;3989;48.810;9.208;2022-07-29T01:02:30;98554.91;;;19.88;100.00
7888;BME280;3989;48.810;9.208;2022-07-29T01:04:57;98546.78;;;19.88;100.00
7888;BME280;3989;48.810;9.208;2022-07-29T01:07:25;98539.22;;;19.90;100.00
7888;BME280;3989;48.810;9.208;2022-07-29T01:09:53;98523.88;;;19.79;100.00
7888;BME280;3989;48.810;9.208;2022-07-29T01:12:23;98518.84;;;19.71;100.00
7888;BME280;3989;48.810;9.208;2022-07-29T01:14:53;98529.03;;;19.81;100.00
7888;BME280;3989;48.810;9.208;2022-07-29T01:17:22;98529.78;;;19.76;100.00
7888;BME280;3989;48.810;9.208;2022-07-29T01:19:56;98530.00;;;19.75;100.00
7888;BME280;3989;48.810;9.208;2022-07-29T01:22:51;98500.13;;;19.53;100.00
7888;BME280;3989;48.810;9.208;2022-07-29T01:25:32;98512.78;;;19.64;100.00
7888;BME280;3989;48.810;9.208;2022-07-29T01:30:53;98529.44;;;19.73;100.00
7888;BME280;3989;48.810;9.208;2022-07-29T01:33:21;98444.00;;;19.20;100.00
7888;BME280;3989;48.810;9.208;2022-07-29T01:36:11;98529.25;;;19.63;100.00
7888;BME280;3989;48.810;9.208;2022-07-29T01:38:41;98534.09;;;19.61;100.00
7888;BME280;3989;48.810;9.208;2022-07-29T01:41:12;98538.09;;;19.58;100.00
7888;BME280;3989;48.810;9.208;2022-07-29T01:43:44;98531.53;;;19.54;100.00
7888;BME280;3989;48.810;9.208;2022-07-29T01:46:21;98521.09;;;19.46;100.00
7888;BME280;3989;48.810;9.208;2022-07-29T01:48:54;98447.88;;;18.96;100.00
7888;BME280;3989;48.810;9.208;2022-07-29T01:51:26;98509.03;;;19.25;100.00
7888;BME280;3989;48.810;9.208;2022-07-29T01:54:01;98534.97;;;19.38;100.00
7888;BME280;3989;48.810;9.208;2022-07-29T01:56:31;98531.81;;;19.29;100.00
7888;BME280;3989;48.810;9.208;2022-07-29T01:58:59;98533.03;;;19.22;100.00
7888;BME280;3989;48.810;9.208;2022-07-29T02:01:29;98533.75;;;19.17;100.00
7888;BME280;3989;48.810;9.208;2022-07-29T02:03:58;98524.94;;;19.10;100.00
7888;BME280;3989;48.810;9.208;2022-07-29T02:06:27;98494.81;;;18.90;100.00
7888;BME280;3989;48.810;9.208;2022-07-29T02:08:55;98528.88;;;19.03;100.00
7888;BME280;3989;48.810;9.208;2022-07-29T02:11:22;98528.16;;;18.96;100.00
7888;BME280;3989;48.810;9.208;2022-07-29T02:13:50;98527.34;;;18.95;100.00
7888;BME280;3989;48.810;9.208;2022-07-29T02:16:21;98518.66;;;18.93;100.00
7888;BME280;3989;48.810;9.208;2022-07-29T02:18:52;98516.53;;;18.95;100.00
7888;BME280;3989;48.810;9.208;2022-07-29T02:21:24;98510.72;;;19.03;100.00
7888;BME280;3989;48.810;9.208;2022-07-29T02:23:52;98379.97;;;18.29;100.00
7888;BME280;3989;48.810;9.208;2022-07-29T02:26:20;98506.84;;;19.11;100.00
7888;BME280;3989;48.810;9.208;2022-07-29T02:28:50;98507.31;;;19.08;100.00
7888;BME280;3989;48.810;9.208;2022-07-29T02:31:20;98477.16;;;18.87;100.00
7888;BME280;3989;48.810;9.208;2022-07-29T02:33:51;98507.22;;;19.03;100.00
7888;BME280;3989;48.810;9.208;2022-07-29T02:36:21;98501.97;;;18.96;100.00
7888;BME280;3989;48.810;9.208;2022-07-29T02:38:48;98436.31;;;18.49;100.00
7888;BME280;3989;48.810;9.208;2022-07-29T02:41:24;98507.38;;;18.96;100.00
7888;BME280;3989;48.810;9.208;2022-07-29T02:43:55;98492.34;;;18.77;100.00
7888;BME280;3989;48.810;9.208;2022-07-29T02:46:27;98507.03;;;18.81;100.00
7888;BME280;3989;48.810;9.208;2022-07-29T02:49:00;98498.03;;;18.64;100.00
7888;BME280;3989;48.810;9.208;2022-07-29T02:51:40;98482.97;;;18.56;100.00
7888;BME280;3989;48.810;9.208;2022-07-29T02:54:10;98510.22;;;18.66;100.00
7888;BME280;3989;48.810;9.208;2022-07-29T02:56:38;98463.13;;;18.27;100.00
7888;BME280;3989;48.810;9.208;2022-07-29T02:59:10;98471.47;;;18.38;100.00
7888;BME280;3989;48.810;9.208;2022-07-29T03:01:40;98516.59;;;18.60;100.00
7888;BME280;3989;48.810;9.208;2022-07-29T03:04:09;98427.31;;;17.97;100.00
7888;BME280;3989;48.810;9.208;2022-07-29T03:06:39;98519.16;;;18.55;100.00
7888;BME280;3989;48.810;9.208;2022-07-29T03:09:07;98521.50;;;18.52;100.00
7888;BME280;3989;48.810;9.208;2022-07-29T03:11:34;98529.03;;;18.50;100.00
7888;BME280;3989;48.810;9.208;2022-07-29T03:14:02;98475.56;;;18.17;100.00
7888;BME280;3989;48.810;9.208;2022-07-29T03:16:29;98524.91;;;18.47;100.00
7888;BME280;3989;48.810;9.208;2022-07-29T03:18:56;98526.41;;;18.43;100.00
7888;BME280;3989;48.810;9.208;2022-07-29T03:21:25;98503.16;;;18.30;100.00
7888;BME280;3989;48.810;9.208;2022-07-29T03:23:52;98502.91;;;18.32;100.00
7888;BME280;3989;48.810;9.208;2022-07-29T03:26:19;98485.41;;;18.23;100.00
7888;BME280;3989;48.810;9.208;2022-07-29T03:28:45;98480.97;;;18.17;100.00
7888;BME280;3989;48.810;9.208;2022-07-29T03:31:12;98519.84;;;18.39;100.00
7888;BME280;3989;48.810;9.208;2022-07-29T03:33:39;98496.84;;;18.25;100.00
7888;BME280;3989;48.810;9.208;2022-07-29T03:36:06;98511.38;;;18.35;100.00
7888;BME280;3989;48.810;9.208;2022-07-29T03:38:35;98517.25;;;18.32;100.00
7888;BME280;3989;48.810;9.208;2022-07-29T03:41:05;98501.28;;;18.19;100.00
7888;BME280;3989;48.810;9.208;2022-07-29T03:43:38;98488.72;;;18.13;100.00
7888;BME280;3989;48.810;9.208;2022-07-29T03:46:07;98491.06;;;18.10;100.00
7888;BME280;3989;48.810;9.208;2022-07-29T03:48:37;98375.69;;;17.29;100.00
7888;BME280;3989;48.810;9.208;2022-07-29T03:51:06;98528.53;;;18.41;100.00
7888;BME280;3989;48.810;9.208;2022-07-29T03:53:34;98352.47;;;17.28;100.00
7888;BME280;3989;48.810;9.208;2022-07-29T03:56:02;98538.41;;;18.35;100.00
7888;BME280;3989;48.810;9.208;2022-07-29T03:58:30;98535.13;;;18.33;100.00
7888;BME280;3989;48.810;9.208;2022-07-29T04:00:58;98532.63;;;18.32;100.00
7888;BME280;3989;48.810;9.208;2022-07-29T04:03:25;98499.97;;;18.10;100.00
7888;BME280;3989;48.810;9.208;2022-07-29T04:06:00;98529.94;;;18.32;100.00
7888;BME280;3989;48.810;9.208;2022-07-29T04:08:27;98467.78;;;17.97;100.00
7888;BME280;3989;48.810;9.208;2022-07-29T04:10:55;98430.56;;;17.64;100.00
7888;BME280;3989;48.810;9.208;2022-07-29T04:13:22;98465.22;;;17.91;100.00
7888;BME280;3989;48.810;9.208;2022-07-29T04:15:49;98531.94;;;18.36;100.00
7888;BME280;3989;48.810;9.208;2022-07-29T04:18:16;98536.41;;;18.43;100.00
7888;BME280;3989;48.810;9.208;2022-07-29T04:20:43;98530.31;;;18.47;100.00
7888;BME280;3989;48.810;9.208;2022-07-29T04:23:09;98537.72;;;18.52;100.00
7888;BME280;3989;48.810;9.208;2022-07-29T04:25:39;98543.84;;;18.59;100.00
7888;BME280;3989;48.810;9.208;2022-07-29T04:28:08;98537.47;;;18.65;100.00
7888;BME280;3989;48.810;9.208;2022-07-29T04:30:36;98478.84;;;18.30;100.00
7888;BME280;3989;48.810;9.208;2022-07-29T04:33:06;98425.78;;;18.01;100.00
7888;BME280;3989;48.810;9.208;2022-07-29T04:35:35;98535.13;;;18.80;100.00
7888;BME280;3989;48.810;9.208;2022-07-29T04:38:03;98353.59;;;17.62;100.00
7888;BME280;3989;48.810;9.208;2022-07-29T04:40:31;98545.69;;;18.93;100.00
7888;BME280;3989;48.810;9.208;2022-07-29T04:42:59;98492.22;;;18.72;100.00
7888;BME280;3989;48.810;9.208;2022-07-29T04:45:27;98395.13;;;18.07;100.00
7888;BME280;3989;48.810;9.208;2022-07-29T04:47:54;98541.66;;;19.07;100.00
7888;BME280;3989;48.810;9.208;2022-07-29T04:50:21;98441.97;;;18.48;100.00
7888;BME280;3989;48.810;9.208;2022-07-29T04:52:48;98513.03;;;18.83;100.00
7888;BME280;3989;48.810;9.208;2022-07-29T04:55:15;98421.66;;;18.33;100.00
7888;BME280;3989;48.810;9.208;2022-07-29T04:57:42;98503.84;;;18.96;100.00
7888;BME280;3989;48.810;9.208;2022-07-29T05:00:09;98318.72;;;17.95;100.00
7888;BME280;3989;48.810;9.208;2022-07-29T05:02:37;98526.28;;;19.36;100.00
7888;BME280;3989;48.810;9.208;2022-07-29T05:05:05;98500.19;;;19.42;100.00
7888;BME280;3989;48.810;9.208;2022-07-29T05:07:32;98532.38;;;19.71;100.00
7888;BME280;3989;48.810;9.208;2022-07-29T05:09:59;98543.34;;;19.93;100.00
7888;BME280;3989;48.810;9.208;2022-07-29T05:12:26;98549.75;;;20.04;100.00
7888;BME280;3989;48.810;9.208;2022-07-29T05:14:53;98526.78;;;20.06;100.00
7888;BME280;3989;48.810;9.208;2022-07-29T05:17:19;98544.94;;;20.39;100.00
7888;BME280;3989;48.810;9.208;2022-07-29T05:19:48;98545.25;;;20.59;100.00
7888;BME280;3989;48.810;9.208;2022-07-29T05:22:16;98544.50;;;20.80;100.00
7888;BME280;3989;48.810;9.208;2022-07-29T05:24:43;98541.41;;;20.93;100.00
7888;BME280;3989;48.810;9.208;2022-07-29T05:27:10;98539.63;;;21.04;100.00
7888;BME280;3989;48.810;9.208;2022-07-29T05:29:36;98533.56;;;20.97;100.00
7888;BME280;3989;48.810;9.208;2022-07-29T05:32:04;98372.28;;;20.01;100.00
7888;BME280;3989;48.810;9.208;2022-07-29T05:34:31;98546.88;;;21.15;100.00
7888;BME280;3989;48.810;9.208;2022-07-29T05:36:59;98543.47;;;21.25;100.00
7888;BME280;3989;48.810;9.208;2022-07-29T05:39:26;98529.06;;;21.24;100.00
7888;BME280;3989;48.810;9.208;2022-07-29T05:41:52;98490.44;;;21.17;100.00
7888;BME280;3989;48.810;9.208;2022-07-29T05:44:19;98537.31;;;21.56;100.00
7888;BME280;3989;48.810;9.208;2022-07-29T05:46:46;98465.13;;;21.33;100.00
7888;BME280;3989;48.810;9.208;2022-07-29T05:49:13;98547.91;;;22.06;100.00
7888;BME280;3989;48.810;9.208;2022-07-29T05:51:39;98547.78;;;22.23;100.00
7888;BME280;3989;48.810;9.208;2022-07-29T05:54:08;98558.69;;;22.28;100.00
7888;BME280;3989;48.810;9.208;2022-07-29T05:56:35;98482.44;;;21.81;100.00
7888;BME280;3989;48.810;9.208;2022-07-29T05:59:02;98559.28;;;22.35;100.00
7888;BME280;3989;48.810;9.208;2022-07-29T06:01:29;98566.69;;;22.44;100.00
7888;BME280;3989;48.810;9.208;2022-07-29T06:03:56;98561.41;;;22.65;100.00
7888;BME280;3989;48.810;9.208;2022-07-29T06:06:23;98569.22;;;22.93;100.00
7888;BME280;3989;48.810;9.208;2022-07-29T06:08:50;98569.63;;;23.17;100.00
7888;BME280;3989;48.810;9.208;2022-07-29T06:11:18;98566.94;;;23.22;100.00
7888;BME280;3989;48.810;9.208;2022-07-29T06:13:45;98571.41;;;23.43;100.00
7888;BME280;3989;48.810;9.208;2022-07-29T06:16:11;98568.75;;;23.63;100.00
7888;BME280;3989;48.810;9.208;2022-07-29T06:18:38;98507.88;;;23.27;100.00
7888;BME280;3989;48.810;9.208;2022-07-29T06:21:07;98568.81;;;23.83;100.00
7888;BME280;3989;48.810;9.208;2022-07-29T06:23:35;98537.47;;;23.86;100.00
7888;BME280;3989;48.810;9.208;2022-07-29T06:26:03;98536.41;;;24.07;100.00
7888;BME280;3989;48.810;9.208;2022-07-29T06:28:31;98521.72;;;24.23;100.00
7888;BME280;3989;48.810;9.208;2022-07-29T06:30:57;98551.94;;;24.72;100.00
7888;BME280;3989;48.810;9.208;2022-07-29T06:33:24;98569.63;;;25.10;100.00
7888;BME280;3989;48.810;9.208;2022-07-29T06:35:51;98584.03;;;25.36;94.32
7888;BME280;3989;48.810;9.208;2022-07-29T06:38:18;98586.47;;;25.42;85.83
7888;BME280;3989;48.810;9.208;2022-07-29T06:40:45;98583.16;;;25.40;86.20
7888;BME280;3989;48.810;9.208;2022-07-29T06:43:28;98553.22;;;25.15;86.58
7888;BME280;3989;48.810;9.208;2022-07-29T06:45:59;98565.75;;;25.21;90.75
7888;BME280;3989;48.810;9.208;2022-07-29T06:48:27;98582.09;;;25.41;90.89
7888;BME280;3989;48.810;9.208;2022-07-29T06:50:54;98534.63;;;25.17;88.61
7888;BME280;3989;48.810;9.208;2022-07-29T06:53:21;98554.81;;;25.31;89.08
7888;BME280;3989;48.810;9.208;2022-07-29T06:55:48;98565.44;;;25.38;82.51
7888;BME280;3989;48.810;9.208;2022-07-29T06:58:16;98587.25;;;25.53;85.53
7888;BME280;3989;48.810;9.208;2022-07-29T07:00:45;98512.06;;;24.91;85.05
7888;BME280;3989;48.810;9.208;2022-07-29T07:03:14;98589.41;;;25.56;85.64
7888;BME280;3989;48.810;9.208;2022-07-29T07:05:41;98597.09;;;25.49;88.68
7888;BME280;3989;48.810;9.208;2022-07-29T07:08:07;98553.38;;;25.44;89.12
7888;BME280;3989;48.810;9.208;2022-07-29T07:10:34;98598.03;;;25.83;80.81
7888;BME280;3989;48.810;9.208;2022-07-29T07:13:03;98500.53;;;25.20;82.97
7888;BME280;3989;48.810;9.208;2022-07-29T07:15:30;98600.16;;;25.96;81.05
7888;BME280;3989;48.810;9.208;2022-07-29T07:17:57;98596.50;;;26.16;80.74
7888;BME280;3989;48.810;9.208;2022-07-29T07:20:25;98584.78;;;26.05;78.90
7888;BME280;3989;48.810;9.208;2022-07-29T07:22:52;98559.16;;;25.37;81.43
7888;BME280;3989;48.810;9.208;2022-07-29T07:25:18;98603.06;;;25.56;84.77
7888;BME280;3989;48.810;9.208;2022-07-29T07:27:45;98579.34;;;25.51;84.77
7888;BME280;3989;48.810;9.208;2022-07-29T07:30:12;98602.22;;;25.71;80.93
7888;BME280;3989;48.810;9.208;2022-07-29T07:32:39;98580.72;;;25.39;81.29
7888;BME280;3989;48.810;9.208;2022-07-29T07:35:07;98570.06;;;25.37;81.27
7888;BME280;3989;48.810;9.208;2022-07-29T07:37:37;98609.88;;;25.69;83.41
7888;BME280;3989;48.810;9.208;2022-07-29T07:40:06;98497.13;;;25.38;78.62
7888;BME280;3989;48.810;9.208;2022-07-29T07:42:33;98614.94;;;26.39;74.02
7888;BME280;3989;48.810;9.208;2022-07-29T07:45:00;98599.16;;;26.60;74.66
7888;BME280;3989;48.810;9.208;2022-07-29T07:47:27;98534.72;;;26.44;71.56
7888;BME280;3989;48.810;9.208;2022-07-29T07:49:53;98417.28;;;25.90;68.38
7888;BME280;3989;48.810;9.208;2022-07-29T07:52:21;98606.56;;;27.41;67.22
7888;BME280;3989;48.810;9.208;2022-07-29T07:54:49;98469.34;;;26.66;65.24
7888;BME280;3989;48.810;9.208;2022-07-29T07:57:16;98467.56;;;26.80;62.00
7888;BME280;3989;48.810;9.208;2022-07-29T07:59:43;98516.59;;;27.05;61.76
7888;BME280;3989;48.810;9.208;2022-07-29T08:02:10;98609.19;;;27.56;64.41
7888;BME280;3989;48.810;9.208;2022-07-29T08:04:37;98612.94;;;27.60;63.39
7888;BME280;3989;48.810;9.208;2022-07-29T08:07:06;98533.38;;;27.23;63.65
7888;BME280;3989;48.810;9.208;2022-07-29T08:09:33;98600.09;;;27.79;61.93
7888;BME280;3989;48.810;9.208;2022-07-29T08:12:02;98503.75;;;27.25;61.00
7888;BME280;3989;48.810;9.208;2022-07-29T08:14:31;98502.97;;;27.43;58.10
7888;BME280;3989;48.810;9.208;2022-07-29T08:16:58;98503.34;;;27.36;57.02
7888;BME280;3989;48.810;9.208;2022-07-29T08:19:24;98557.31;;;27.36;57.39
7888;BME280;3989;48.810;9.208;2022-07-29T08:21:51;98383.59;;;26.28;58.29
7888;BME280;3989;48.810;9.208;2022-07-29T08:24:18;98438.19;;;26.38;61.06
7888;BME280;3989;48.810;9.208;2022-07-29T08:27:04;98468.94;;;26.54;62.57
7888;BME280;3989;48.810;9.208;2022-07-29T08:29:31;98471.75;;;26.49;60.74
7888;BME280;3989;48.810;9.208;2022-07-29T08:31:57;98607.63;;;27.21;64.08
7888;BME280;3989;48.810;9.208;2022-07-29T08:34:24;98613.84;;;27.03;66.06
7888;BME280;3989;48.810;9.208;2022-07-29T08:36:51;98473.91;;;26.23;66.71
7888;BME280;3989;48.810;9.208;2022-07-29T08:39:17;98508.84;;;26.60;66.54
7888;BME280;3989;48.810;9.208;2022-07-29T08:41:44;98577.59;;;27.11;65.19
7888;BME280;3989;48.810;9.208;2022-07-29T08:44:12;98566.88;;;26.91;62.06
7888;BME280;3989;48.810;9.208;2022-07-29T08:46:39;98615.25;;;27.24;63.45
7888;BME280;3989;48.810;9.208;2022-07-29T08:49:06;98567.63;;;26.96;63.90
7888;BME280;3989;48.810;9.208;2022-07-29T08:51:33;98616.56;;;27.32;63.32
7888;BME280;3989;48.810;9.208;2022-07-29T08:54:02;98606.94;;;27.34;62.27
7888;BME280;3989;48.810;9.208;2022-07-29T08:56:29;98546.72;;;27.05;60.78
7888;BME280;3989;48.810;9.208;2022-07-29T08:58:58;98599.75;;;27.38;60.13
7888;BME280;3989;48.810;9.208;2022-07-29T09:01:27;98608.75;;;27.44;57.57
7888;BME280;3989;48.810;9.208;2022-07-29T09:03:56;98599.84;;;27.33;58.25
7888;BME280;3989;48.810;9.208;2022-07-29T09:06:24;98597.44;;;27.27;59.52
7888;BME280;3989;48.810;9.208;2022-07-29T09:08:54;98609.91;;;27.38;56.70
7888;BME280;3989;48.810;9.208;2022-07-29T09:11:25;98614.47;;;27.47;56.72
7888;BME280;3989;48.810;9.208;2022-07-29T09:13:51;98577.25;;;27.41;54.61
7888;BME280;3989;48.810;9.208;2022-07-29T09:16:18;98583.56;;;27.66;53.98
7888;BME280;3989;48.810;9.208;2022-07-29T09:18:46;98614.72;;;27.93;49.71
7888;BME280;3989;48.810;9.208;2022-07-29T09:21:15;98613.88;;;27.74;47.62
7888;BME280;3989;48.810;9.208;2022-07-29T09:24:04;98616.03;;;27.53;47.88
7888;BME280;3989;48.810;9.208;2022-07-29T09:26:33;98614.66;;;27.56;48.74
7888;BME280;3989;48.810;9.208;2022-07-29T09:29:07;98616.03;;;27.77;48.35
7888;BME280;3989;48.810;9.208;2022-07-29T09:31:35;98613.75;;;28.03;47.93
7888;BME280;3989;48.810;9.208;2022-07-29T09:34:04;98614.16;;;28.15;47.05
7888;BME280;3989;48.810;9.208;2022-07-29T09:36:38;98615.34;;;28.09;46.43
7888;BME280;3989;48.810;9.208;2022-07-29T09:39:05;98605.25;;;28.23;46.06
7888;BME280;3989;48.810;9.208;2022-07-29T09:41:44;98593.25;;;28.19;45.47
7888;BME280;3989;48.810;9.208;2022-07-29T09:44:11;98609.63;;;28.43;44.72
7888;BME280;3989;48.810;9.208;2022-07-29T09:46:40;98604.94;;;28.25;44.49
7888;BME280;3989;48.810;9.208;2022-07-29T09:49:10;98592.56;;;28.08;44.71
7888;BME280;3989;48.810;9.208;2022-07-29T09:51:38;98598.81;;;28.33;44.97
7888;BME280;3989;48.810;9.208;2022-07-29T09:54:23;98592.75;;;28.68;44.52
7888;BME280;3989;48.810;9.208;2022-07-29T09:56:51;98589.75;;;28.64;44.83
7888;BME280;3989;48.810;9.208;2022-07-29T09:59:18;98584.94;;;28.56;45.26
7888;BME280;3989;48.810;9.208;2022-07-29T10:01:48;98601.72;;;28.74;45.42
7888;BME280;3989;48.810;9.208;2022-07-29T10:04:17;98589.94;;;28.54;45.85
7888;BME280;3989;48.810;9.208;2022-07-29T10:06:56;98593.81;;;28.35;46.17
7888;BME280;3989;48.810;9.208;2022-07-29T10:09:23;98595.00;;;28.29;46.28
7888;BME280;3989;48.810;9.208;2022-07-29T10:12:06;98596.34;;;28.31;46.58
7888;BME280;3989;48.810;9.208;2022-07-29T10:14:35;98594.47;;;28.45;46.70
7888;BME280;3989;48.810;9.208;2022-07-29T10:17:03;98583.50;;;28.45;46.39
7888;BME280;3989;48.810;9.208;2022-07-29T10:19:32;98594.75;;;28.44;46.49
7888;BME280;3989;48.810;9.208;2022-07-29T10:22:01;98588.84;;;28.18;47.24
7888;BME280;3989;48.810;9.208;2022-07-29T10:24:29;98597.47;;;28.11;47.77
7888;BME280;3989;48.810;9.208;2022-07-29T10:26:58;98590.91;;;27.89;48.56
7888;BME280;3989;48.810;9.208;2022-07-29T10:29:26;98588.47;;;27.69;49.67
7888;BME280;3989;48.810;9.208;2022-07-29T10:32:06;98548.75;;;27.42;49.79
7888;BME280;3989;48.810;9.208;2022-07-29T10:34:49;98567.00;;;27.28;51.02
7888;BME280;3989;48.810;9.208;2022-07-29T10:37:26;98588.53;;;27.40;51.69
7888;BME280;3989;48.810;9.208;2022-07-29T10:40:02;98581.94;;;27.17;51.73
7888;BME280;3989;48.810;9.208;2022-07-29T10:42:52;98585.22;;;26.90;53.13
7888;BME280;3989;48.810;9.208;2022-07-29T10:45:20;98534.22;;;26.37;53.81
7888;BME280;3989;48.810;9.208;2022-07-29T10:47:47;98586.63;;;26.54;55.07
7888;BME280;3989;48.810;9.208;2022-07-29T10:50:16;98583.41;;;26.47;54.99
7888;BME280;3989;48.810;9.208;2022-07-29T10:52:53;98589.84;;;26.27;55.89
7888;BME280;3989;48.810;9.208;2022-07-29T10:55:34;98569.81;;;25.93;56.00
7888;BME280;3989;48.810;9.208;2022-07-29T10:58:14;98595.19;;;25.98;57.44
7888;BME280;3989;48.810;9.208;2022-07-29T11:00:41;98600.97;;;25.92;58.17
7888;BME280;3989;48.810;9.208;2022-07-29T11:03:08;98608.72;;;25.80;59.79
7888;BME280;3989;48.810;9.208;2022-07-29T11:05:55;98603.13;;;25.46;64.33
7888;BME280;3989;48.810;9.208;2022-07-29T11:08:24;98604.03;;;25.11;68.02
7888;BME280;3989;48.810;9.208;2022-07-29T11:10:53;98608.69;;;24.75;72.49
7888;BME280;3989;48.810;9.208;2022-07-29T11:13:45;98614.19;;;24.45;84.08
7888;BME280;3989;48.810;9.208;2022-07-29T11:16:13;98600.47;;;23.99;97.45
7888;BME280;3989;48.810;9.208;2022-07-29T11:21:42;98582.78;;;22.83;100.00
7888;BME280;3989;48.810;9.208;2022-07-29T11:24:12;98611.66;;;22.25;100.00
7888;BME280;3989;48.810;9.208;2022-07-29T11:26:39;98600.31;;;21.80;100.00
7888;BME280;3989;48.810;9.208;2022-07-29T11:29:17;98568.81;;;21.57;100.00
7888;BME280;3989;48.810;9.208;2022-07-29T11:31:46;98619.56;;;22.00;100.00
7888;BME280;3989;48.810;9.208;2022-07-29T11:34:18;98626.09;;;22.26;100.00
7888;BME280;3989;48.810;9.208;2022-07-29T11:37:15;98634.59;;;22.66;100.00
7888;BME280;3989;48.810;9.208;2022-07-29T11:39:44;98623.34;;;22.89;100.00
7888;BME280;3989;48.810;9.208;2022-07-29T11:42:36;98651.25;;;23.07;100.00
7888;BME280;3989;48.810;9.208;2022-07-29T11:45:05;98609.34;;;22.71;100.00
7888;BME280;3989;48.810;9.208;2022-07-29T11:47:34;98630.50;;;23.00;100.00
7888;BME280;3989;48.810;9.208;2022-07-29T11:50:03;98619.91;;;23.04;100.00
7888;BME280;3989;48.810;9.208;2022-07-29T11:52:34;98630.78;;;23.46;100.00
7888;BME280;3989;48.810;9.208;2022-07-29T11:55:05;98628.97;;;23.72;100.00
7888;BME280;3989;48.810;9.208;2022-07-29T11:57:34;98632.34;;;24.04;100.00
7888;BME280;3989;48.810;9.208;2022-07-29T12:00:01;98629.72;;;24.29;100.00
7888;BME280;3989;48.810;9.208;2022-07-29T12:02:38;98622.06;;;24.56;100.00
7888;BME280;3989;48.810;9.208;2022-07-29T12:05:08;98627.00;;;24.85;100.00
7888;BME280;3989;48.810;9.208;2022-07-29T12:07:37;98619.59;;;25.05;100.00
7888;BME280;3989;48.810;9.208;2022-07-29T12:10:06;98637.34;;;25.13;89.38
7888;BME280;3989;48.810;9.208;2022-07-29T12:12:33;98632.72;;;25.08;86.31
7888;BME280;3989;48.810;9.208;2022-07-29T12:15:11;98628.06;;;25.19;85.45
7888;BME280;3989;48.810;9.208;2022-07-29T12:17:37;98623.13;;;25.26;77.68
7888;BME280;3989;48.810;9.208;2022-07-29T12:20:06;98631.53;;;25.45;74.21
7888;BME280;3989;48.810;9.208;2022-07-29T12:22:36;98636.25;;;25.93;67.44
7888;BME280;3989;48.810;9.208;2022-07-29T12:25:07;98636.59;;;26.36;65.36
7888;BME280;3989;48.810;9.208;2022-07-29T12:27:35;98603.06;;;26.10;61.86
7888;BME280;3989;48.810;9.208;2022-07-29T12:30:05;98637.03;;;25.99;63.95
7888;BME280;3989;48.810;9.208;2022-07-29T12:32:33;98634.25;;;25.50;64.81
7888;BME280;3989;48.810;9.208;2022-07-29T12:35:02;98613.63;;;25.03;69.86
7888;BME280;3989;48.810;9.208;2022-07-29T12:37:30;98631.66;;;24.84;72.61
7888;BME280;3989;48.810;9.208;2022-07-29T12:39:58;98613.34;;;24.70;73.16
7888;BME280;3989;48.810;9.208;2022-07-29T12:42:25;98624.00;;;24.71;71.37
7888;BME280;3989;48.810;9.208;2022-07-29T12:44:52;98620.16;;;24.77;73.00
7888;BME280;3989;48.810;9.208;2022-07-29T12:47:20;98617.19;;;24.89;74.70
7888;BME280;3989;48.810;9.208;2022-07-29T12:49:47;98590.97;;;24.73;75.44
7888;BME280;3989;48.810;9.208;2022-07-29T12:52:24;98616.66;;;24.87;78.17
7888;BME280;3989;48.810;9.208;2022-07-29T12:54:50;98623.72;;;24.73;80.59
7888;BME280;3989;48.810;9.208;2022-07-29T12:57:18;98627.25;;;24.53;82.47
7888;BME280;3989;48.810;9.208;2022-07-29T12:59:58;98626.16;;;24.34;83.23
7888;BME280;3989;48.810;9.208;2022-07-29T13:02:25;98631.59;;;24.24;81.92
7888;BME280;3989;48.810;9.208;2022-07-29T13:04:56;98633.72;;;24.07;85.67
7888;BME280;3989;48.810;9.208;2022-07-29T13:07:25;98624.66;;;23.81;90.72
7888;BME280;3989;48.810;9.208;2022-07-29T13:09:52;98623.28;;;23.68;92.44
7888;BME280;3989;48.810;9.208;2022-07-29T13:12:21;98636.59;;;23.65;95.72
7888;BME280;3989;48.810;9.208;2022-07-29T13:14:48;98637.09;;;23.57;100.00
7888;BME280;3989;48.810;9.208;2022-07-29T13:17:16;98616.81;;;23.37;100.00
7888;BME280;3989;48.810;9.208;2022-07-29T13:19:45;98602.03;;;23.18;100.00
7888;BME280;3989;48.810;9.208;2022-07-29T13:22:14;98643.50;;;23.35;100.00
7888;BME280;3989;48.810;9.208;2022-07-29T13:24:48;98639.63;;;23.21;100.00
7888;BME280;3989;48.810;9.208;2022-07-29T13:27:16;98650.66;;;22.99;100.00
7888;BME280;3989;48.810;9.208;2022-07-29T13:29:44;98648.81;;;22.73;100.00
7888;BME280;3989;48.810;9.208;2022-07-29T13:32:12;98654.34;;;22.57;100.00